Time;durP1;ratioP1;P1;durP2;ratioP2;P2;SDS_P1;SDS_P2;PMS_P1;PMS_P2;Temp;Humidity;BMP_temperature;BMP_pressure;BME280_temperature;BME280_humidity;BME280_pressure;Samples;Min_cycle;Max_cycle;Signal;HPM_P1;HPM_P2
2022/12/11 00:01:17;;;;;;;99.43;22.92;;;0.30;99.90;;;;;;5136390;27;20450;-76
2022/12/11 00:03:43;;;;;;;114.20;22.52;;;;;;;;;;5154665;27;20039;-76
2022/12/11 00:06:12;;;;;;;107.63;23.05;;;0.30;99.90;;;;;;5154358;27;20089;-75
2022/12/11 00:08:38;;;;;;;118.22;22.30;;;;;;;;;;5154332;27;20047;-76
2022/12/11 00:11:05;;;;;;;121.85;22.83;;;;;;;;;;5154781;27;20050;-76
2022/12/11 00:13:31;;;;;;;;;;;;;;;;;;5154972;27;20054;-77
2022/12/11 00:16:00;;;;;;;110.15;22.38;;;;;;;;;;5154386;27;20381;-76
2022/12/11 00:18:26;;;;;;;98.38;21.25;;;;;;;;;;5135870;27;20126;-76
2022/12/11 00:20:52;;;;;;;107.18;22.10;;;;;;;;;;5154411;27;20046;-76
2022/12/11 00:23:18;;;;;;;118.05;23.38;;;0.30;99.90;;;;;;5154378;27;20435;-76
2022/12/11 00:25:45;;;;;;;137.48;24.27;;;;;;;;;;5154352;27;20049;-75
2022/12/11 00:28:13;;;;;;;112.30;23.42;;;0.40;99.90;;;;;;5154409;27;20043;-76
2022/12/11 00:30:40;;;;;;;109.53;22.00;;;;;;;;;;5135597;27;20043;-75
2022/12/11 00:33:06;;;;;;;115.90;22.92;;;;;;;;;;5154190;27;20095;-76
2022/12/11 00:35:32;;;;;;;111.00;21.25;;;;;;;;;;5153873;27;20482;-76
2022/12/11 00:37:58;;;;;;;110.40;20.63;;;;;;;;;;5154242;27;20057;-76
2022/12/11 00:40:23;;;;;;;128.65;25.33;;;0.30;99.90;;;;;;5153599;27;20061;-75
2022/12/11 00:42:49;;;;;;;102.63;21.15;;;;;;;;;;5153997;27;20118;-76
2022/12/11 00:45:16;;;;;;;118.72;21.98;;;;;;;;;;5153832;27;20078;-76
2022/12/11 00:47:42;;;;;;;107.40;21.00;;;;;;;;;;5153830;27;20043;-77
2022/12/11 00:50:11;;;;;;;114.45;22.75;;;;;;;;;;5154020;27;20142;-76
2022/12/11 00:52:37;;;;;;;109.85;22.05;;;;;;;;;;5153727;27;20046;-76
2022/12/11 00:55:04;;;;;;;121.82;22.23;;;;;;;;;;5153752;27;20054;-76
2022/12/11 00:57:30;;;;;;;115.32;22.83;;;;;;;;;;5153950;27;20087;-76
2022/12/11 00:59:56;;;;;;;109.13;21.75;;;;;;;;;;5153459;27;20193;-76
2022/12/11 01:02:22;;;;;;;140.23;23.25;;;;;;;;;;5135485;27;20057;-76
2022/12/11 01:04:48;;;;;;;115.20;21.98;;;;;;;;;;5153632;27;20039;-76
2022/12/11 01:07:14;;;;;;;133.63;22.92;;;;;;;;;;5153571;27;20095;-76
2022/12/11 01:12:27;;;;;;;105.82;21.33;;;;;;;;;;5153449;27;20485;-76
2022/12/11 01:14:53;;;;;;;127.68;21.63;;;;;;;;;;5153446;27;20112;-76
2022/12/11 01:17:19;;;;;;;131.00;23.95;;;;;;;;;;5153522;27;20047;-76
2022/12/11 01:19:45;;;;;;;95.97;20.95;;;;;;;;;;5153519;27;20394;-76
2022/12/11 01:22:11;;;;;;;123.57;21.55;;;;;;;;;;5153602;27;20080;-75
2022/12/11 01:24:37;;;;;;;144.48;23.85;;;;;;;;;;5153557;27;20180;-76
2022/12/11 01:27:03;;;;;;;125.15;22.02;;;0.50;99.90;;;;;;5153660;27;20070;-75
2022/12/11 01:29:30;;;;;;;144.20;24.48;;;;;;;;;;5153405;27;20043;-75
2022/12/11 01:31:56;;;;;;;112.25;20.65;;;;;;;;;;5153759;27;20038;-75
2022/12/11 01:34:21;;;;;;;117.05;23.00;;;0.70;99.90;;;;;;5153603;27;20373;-75
2022/12/11 01:36:47;;;;;;;108.15;20.63;;;0.60;99.90;;;;;;5135077;27;20046;-75
2022/12/11 01:39:13;;;;;;;115.10;22.03;;;;;;;;;;5153449;27;20046;-75
2022/12/11 01:41:39;;;;;;;115.90;21.63;;;;;;;;;;5153540;27;20344;-75
2022/12/11 01:44:06;;;;;;;108.68;21.20;;;;;;;;;;5153206;27;20081;-75
2022/12/11 01:46:33;;;;;;;98.55;21.25;;;;;;;;;;5153398;27;20383;-75
2022/12/11 01:49:00;;;;;;;105.80;21.90;;;;;;;;;;5153355;27;20494;-75
2022/12/11 01:51:28;;;;;;;106.75;22.25;;;;;;;;;;5153323;27;20042;-75
2022/12/11 01:54:03;;;;;;;126.90;22.60;;;0.80;99.90;;;;;;5153226;27;20046;-75
2022/12/11 01:56:31;;;;;;;116.93;23.20;;;0.70;99.90;;;;;;5135775;27;20410;-75
2022/12/11 01:58:59;;;;;;;113.97;22.08;;;;;;;;;;5152953;27;20099;-75
2022/12/11 02:01:44;;;;;;;92.20;21.33;;;;;;;;;;5134970;27;20062;-75
2022/12/11 02:04:11;;;;;;;102.75;20.77;;;0.70;99.90;;;;;;5153176;27;20050;-75
2022/12/11 02:06:39;;;;;;;102.35;19.73;;;;;;;;;;5153216;27;20082;-75
2022/12/11 02:09:07;;;;;;;105.05;20.88;;;;;;;;;;5153146;27;20089;-75
2022/12/11 02:11:47;;;;;;;103.75;19.83;;;;;;;;;;5153126;27;20051;-75
2022/12/11 02:14:19;;;;;;;105.07;22.23;;;;;;;;;;5152953;27;20050;-75
2022/12/11 02:16:50;;;;;;;105.13;20.98;;;;;;;;;;5134554;27;20043;-75
2022/12/11 02:19:39;;;;;;;102.75;22.52;;;;;;;;;;5153197;27;20046;-75
2022/12/11 02:22:08;;;;;;;113.78;21.63;;;;;;;;;;5152348;27;20613;-75
2022/12/11 02:24:48;;;;;;;97.07;22.30;;;1.00;99.90;;;;;;5152972;27;20095;-74
2022/12/11 02:27:28;;;;;;;114.28;20.95;;;;;;;;;;5152513;27;20398;-75
2022/12/11 02:30:03;;;;;;;112.43;21.75;;;0.50;99.90;;;;;;5153622;27;20046;-75
2022/12/11 02:32:45;;;;;;;100.38;21.38;;;;;;;;;;5156782;27;20368;-75
2022/12/11 02:35:14;;;;;;;99.53;20.05;;;;;;;;;;5156685;27;20053;-75
2022/12/11 02:37:44;;;;;;;105.47;20.70;;;0.70;99.90;;;;;;5156630;27;20046;-75
2022/12/11 02:40:11;;;;;;;96.93;21.42;;;;;;;;;;5156403;27;20062;-75
2022/12/11 02:42:41;;;;;;;107.80;20.90;;;0.80;99.90;;;;;;5156196;27;20055;-75
2022/12/11 02:45:08;;;;;;;101.00;20.10;;;;;;;;;;5156480;27;20694;-75
2022/12/11 02:47:35;;;;;;;92.25;21.73;;;;;;;;;;5156425;27;20057;-74
2022/12/11 02:50:02;;;;;;;92.65;20.08;;;;;;;;;;5156304;27;20122;-74
2022/12/11 02:52:29;;;;;;;87.70;19.67;;;;;;;;;;5156264;27;20049;-75
2022/12/11 02:54:57;;;;;;;83.18;19.40;;;;;;;;;;5137840;27;20086;-75
2022/12/11 02:57:43;;;;;;;105.78;19.65;;;;;;;;;;5155984;27;20053;-75
2022/12/11 03:00:10;;;;;;;101.57;20.70;;;;;;;;;;5155775;27;20562;-75
2022/12/11 03:02:36;;;;;;;;;;;1.00;99.90;;;;;;5156571;27;20034;-75
2022/12/11 03:05:04;;;;;;;103.30;20.55;;;;;;;;;;5156114;27;20337;-75
2022/12/11 03:07:34;;;;;;;99.20;21.75;;;0.90;99.90;;;;;;5156035;27;20053;-75
2022/12/11 03:10:01;;;;;;;117.43;21.77;;;;;;;;;;5155827;27;20039;-75
2022/12/11 03:12:34;;;;;;;117.50;22.63;;;;;;;;;;5155630;27;20507;-75
2022/12/11 03:15:02;;;;;;;105.50;22.42;;;;;;;;;;5137302;27;20046;-74
2022/12/11 03:17:35;;;;;;;125.70;22.33;;;;;;;;;;5155809;27;20047;-75
2022/12/11 03:20:12;;;;;;;131.07;23.30;;;;;;;;;;5155821;27;20053;-74
2022/12/11 03:22:38;;;;;;;119.97;23.42;;;;;;;;;;5155941;27;20039;-74
2022/12/11 03:25:08;;;;;;;105.53;24.30;;;;;;;;;;5137393;27;20042;-75
2022/12/11 03:27:43;;;;;;;113.70;22.15;;;0.90;99.90;;;;;;5155835;27;20082;-75
2022/12/11 03:30:14;;;;;;;96.15;20.88;;;0.80;99.90;;;;;;5155409;27;20129;-74
2022/12/11 03:32:49;;;;;;;117.25;22.50;;;;;;;;;;5155239;27;20533;-74
2022/12/11 03:35:15;;;;;;;106.93;21.50;;;;;;;;;;5155455;27;20046;-74
2022/12/11 03:37:43;;;;;;;92.47;20.77;;;;;;;;;;5155462;27;20045;-74
2022/12/11 03:40:16;;;;;;;95.47;21.95;;;0.90;99.90;;;;;;5154739;27;20057;-74
2022/12/11 03:42:43;;;;;;;106.95;21.58;;;;;;;;;;5135668;27;20077;-74
2022/12/11 03:45:09;;;;;;;113.78;23.20;;;;;;;;;;5155271;27;20046;-74
2022/12/11 03:47:35;;;;;;;;;;;;;;;;;;5155699;27;20104;-74
2022/12/11 03:50:03;;;;;;;112.40;23.13;;;;;;;;;;5155162;27;20359;-75
2022/12/11 03:52:31;;;;;;;100.25;22.33;;;;;;;;;;5136285;27;20042;-74
2022/12/11 03:55:00;;;;;;;114.18;23.33;;;;;;;;;;5154790;27;20050;-75
2022/12/11 03:57:30;;;;;;;103.50;22.92;;;0.60;99.90;;;;;;5154677;27;20538;-74
2022/12/11 03:59:56;;;;;;;109.53;20.63;;;;;;;;;;5155171;27;20065;-75
2022/12/11 04:02:22;;;;;;;;;;;0.70;99.90;;;;;;5155377;27;20095;-75
2022/12/11 04:04:48;;;;;;;111.55;22.15;;;;;;;;;;5154905;27;20026;-75
2022/12/11 04:07:14;;;;;;;120.63;23.15;;;;;;;;;;5154841;27;20607;-75
2022/12/11 04:09:40;;;;;;;101.00;20.42;;;;;;;;;;5154229;27;20494;-74
2022/12/11 04:12:06;;;;;;;122.22;23.27;;;;;;;;;;5154659;27;20117;-74
2022/12/11 04:24:14;;;;;;;109.28;23.33;;;;;;;;;;5154645;27;20138;-74
2022/12/11 04:25:34;;;;;;;136.43;25.08;;;;;;;;;;5154514;27;20055;-75
2022/12/11 04:28:00;;;;;;;125.20;22.60;;;;;;;;;;5154172;27;20047;-74
2022/12/11 04:30:29;;;;;;;119.22;24.02;;;;;;;;;;5135795;27;20138;-74
2022/12/11 04:32:54;;;;;;;130.63;23.45;;;0.90;99.90;;;;;;5135780;27;20049;-74
2022/12/11 04:35:21;;;;;;;111.15;22.13;;;;;;;;;;5154389;27;20125;-74
2022/12/11 04:37:47;;;;;;;101.97;23.02;;;1.00;99.90;;;;;;5135653;27;20038;-74
2022/12/11 04:40:15;;;;;;;134.82;23.92;;;;;;;;;;5154104;27;20089;-74
2022/12/11 04:42:41;;;;;;;110.20;21.83;;;;;;;;;;5154179;27;20054;-74
2022/12/11 04:45:08;;;;;;;126.65;22.08;;;;;;;;;;5154161;27;20046;-74
2022/12/11 04:47:34;;;;;;;136.80;24.92;;;;;;;;;;5153768;27;20494;-74
2022/12/11 04:50:01;;;;;;;132.50;23.52;;;;;;;;;;5154135;27;20593;-74
2022/12/11 04:52:27;;;;;;;124.82;23.27;;;;;;;;;;5134763;27;20125;-74
2022/12/11 04:54:53;;;;;;;112.15;22.10;;;;;;;;;;5153876;27;20046;-74
2022/12/11 04:57:20;;;;;;;124.35;23.50;;;;;;;;;;5153943;27;20050;-74
2022/12/11 04:59:46;;;;;;;130.13;23.25;;;;;;;;;;5153959;27;20410;-75
2022/12/11 05:02:12;;;;;;;;;;;1.10;99.90;;;;;;5154304;27;20051;-74
2022/12/11 05:04:38;;;;;;;130.70;23.40;;;;;;;;;;5153798;27;19926;-75
2022/12/11 05:07:04;;;;;;;129.15;22.75;;;;;;;;;;5153483;27;20052;-74
2022/12/11 05:09:30;;;;;;;119.63;22.55;;;;;;;;;;5153803;27;20149;-75
2022/12/11 05:11:56;;;;;;;122.80;21.95;;;;;;;;;;5153711;27;20114;-75
2022/12/11 05:14:22;;;;;;;133.63;22.35;;;;;;;;;;5153769;27;20046;-75
2022/12/11 05:16:48;;;;;;;122.10;22.40;;;;;;;;;;5153770;27;20038;-74
2022/12/11 05:19:14;;;;;;;118.60;22.85;;;;;;;;;;5153878;27;20145;-75
2022/12/11 05:21:40;;;;;;;138.55;23.63;;;0.90;99.90;;;;;;5153569;27;20125;-75
2022/12/11 05:24:06;;;;;;;118.93;24.20;;;;;;;;;;5153747;27;20137;-75
2022/12/11 05:26:32;;;;;;;117.15;22.08;;;;;;;;;;5153612;27;20065;-75
2022/12/11 05:28:58;;;;;;;149.73;23.73;;;;;;;;;;5135047;27;20394;-75
2022/12/11 05:31:26;;;;;;;118.25;23.02;;;;;;;;;;5153611;27;20417;-75
2022/12/11 05:33:52;;;;;;;123.95;22.00;;;;;;;;;;5153533;27;20069;-75
2022/12/11 05:36:28;;;;;;;130.43;22.90;;;;;;;;;;5134862;27;20047;-75
2022/12/11 05:38:55;;;;;;;98.20;20.00;;;;;;;;;;5153522;27;20049;-75
2022/12/11 05:41:23;;;;;;;133.35;22.70;;;0.90;99.90;;;;;;5153544;27;20055;-76
2022/12/11 05:43:49;;;;;;;122.97;22.60;;;;;;;;;;5153373;27;20487;-75
2022/12/11 05:46:20;;;;;;;123.25;21.23;;;;;;;;;;5117918;27;20090;-75
2022/12/11 05:48:47;;;;;;;129.82;22.90;;;;;;;;;;5153336;27;20075;-75
2022/12/11 05:51:13;;;;;;;123.88;21.45;;;;;;;;;;5152962;27;20053;-75
2022/12/11 05:53:40;;;;;;;110.93;23.98;;;;;;;;;;5153270;27;20039;-75
2022/12/11 05:56:10;;;;;;;114.00;21.35;;;1.00;99.90;;;;;;5153335;27;20390;-75
2022/12/11 05:58:37;;;;;;;114.68;21.38;;;;;;;;;;5153361;27;20042;-75
2022/12/11 06:01:06;;;;;;;126.30;22.83;;;;;;;;;;5134614;27;20440;-75
2022/12/11 06:03:32;;;;;;;115.40;21.75;;;;;;;;;;5153178;27;20104;-75
2022/12/11 06:06:02;;;;;;;113.45;20.05;;;1.30;99.90;;;;;;5155361;27;20122;-75
2022/12/11 06:08:28;;;;;;;115.93;21.17;;;;;;;;;;5157197;27;20042;-75
2022/12/11 06:10:54;;;;;;;111.20;21.42;;;;;;;;;;5157166;27;20052;-75
2022/12/11 06:13:20;;;;;;;121.30;22.45;;;;;;;;;;5157078;27;20093;-75
2022/12/11 06:15:46;;;;;;;123.07;21.33;;;;;;;;;;5157001;27;20054;-75
2022/12/11 06:18:12;;;;;;;116.32;23.35;;;;;;;;;;5156961;27;20092;-75
2022/12/11 06:20:37;;;;;;;108.15;21.35;;;1.00;99.90;;;;;;5156751;27;20042;-75
2022/12/11 06:23:04;;;;;;;108.55;21.90;;;;;;;;;;5156589;27;20536;-76
2022/12/11 06:25:30;;;;;;;102.75;21.27;;;;;;;;;;5156924;27;20058;-76
2022/12/11 06:27:56;;;;;;;;;;;1.00;99.90;;;;;;5157235;27;20047;-76
2022/12/11 06:30:22;;;;;;;103.57;20.63;;;;;;;;;;5156764;27;19957;-76
2022/12/11 06:32:49;;;;;;;97.47;21.17;;;;;;;;;;5156722;27;20043;-75
2022/12/11 06:35:15;;;;;;;109.68;20.77;;;1.20;99.90;;;;;;5156578;27;20039;-75
2022/12/11 06:37:41;;;;;;;116.57;22.42;;;;;;;;;;5156668;27;20509;-75
2022/12/11 06:40:08;;;;;;;112.32;22.15;;;;;;;;;;5156427;27;20050;-76
2022/12/11 06:42:34;;;;;;;119.22;21.55;;;;;;;;;;5156469;27;20395;-75
2022/12/11 06:45:01;;;;;;;108.20;21.88;;;;;;;;;;5156423;27;20045;-76
2022/12/11 06:47:27;;;;;;;;;;;;;;;;;;5156616;27;20042;-76
2022/12/11 06:49:53;;;;;;;105.80;21.67;;;;;;;;;;5156424;27;20056;-76
2022/12/11 06:52:20;;;;;;;116.32;21.05;;;;;;;;;;5156322;27;20398;-76
2022/12/11 06:54:46;;;;;;;121.45;22.05;;;;;;;;;;5156270;27;20050;-76
2022/12/11 06:57:12;;;;;;;107.32;23.05;;;;;;;;;;5155944;27;20047;-77
2022/12/11 06:59:38;;;;;;;95.55;20.15;;;;;;;;;;5156212;27;20038;-76
2022/12/11 07:02:04;;;;;;;107.32;20.30;;;;;;;;;;5155841;27;20046;-77
2022/12/11 07:04:30;;;;;;;96.88;21.23;;;;;;;;;;5155880;27;20103;-76
2022/12/11 07:06:56;;;;;;;100.70;23.83;;;;;;;;;;5156121;27;20133;-77
2022/12/11 07:09:23;;;;;;;106.63;21.30;;;;;;;;;;5156052;27;20107;-76
2022/12/11 07:11:49;;;;;;;;;;;1.10;99.90;;;;;;5156426;27;20038;-77
2022/12/11 07:14:16;;;;;;;103.28;20.80;;;;;;;;;;5156095;27;19971;-76
2022/12/11 07:16:42;;;;;;;94.85;20.85;;;;;;;;;;5137152;27;20047;-77
2022/12/11 07:19:08;;;;;;;100.15;21.73;;;;;;;;;;5137469;27;20053;-76
2022/12/11 07:21:34;;;;;;;106.93;21.35;;;;;;;;;;5155798;27;20502;-77
2022/12/11 07:24:00;;;;;;;102.85;21.80;;;;;;;;;;5155690;27;20039;-77
2022/12/11 07:26:25;;;;;;;86.03;20.65;;;0.90;99.90;;;;;;5155643;27;20130;-77
2022/12/11 07:28:52;;;;;;;96.80;22.52;;;;;;;;;;5137136;27;20505;-77
2022/12/11 07:31:19;;;;;;;100.53;21.60;;;;;;;;;;5136960;27;20514;-77
2022/12/11 07:33:46;;;;;;;93.00;21.10;;;;;;;;;;5155472;27;20046;-78
2022/12/11 07:36:12;;;;;;;106.72;21.42;;;;;;;;;;5155560;27;20047;-77
2022/12/11 07:38:38;;;;;;;94.55;20.40;;;;;;;;;;5155462;27;20047;-77
2022/12/11 07:41:05;;;;;;;100.70;20.10;;;;;;;;;;5155386;27;20111;-78
2022/12/11 07:43:32;;;;;;;105.72;22.42;;;;;;;;;;5155300;27;20095;-77
2022/12/11 07:46:02;;;;;;;97.78;20.27;;;;;;;;;;5155006;27;20392;-77
2022/12/11 07:48:29;;;;;;;88.57;20.05;;;;;;;;;;5155225;27;20485;-77
2022/12/11 07:50:55;;;;;;;89.68;19.58;;;;;;;;;;5155220;27;20127;-78
2022/12/11 07:53:21;;;;;;;89.57;21.52;;;;;;;;;;5155103;27;20043;-78
2022/12/11 07:55:47;;;;;;;82.18;20.05;;;;;;;;;;5147506;27;20045;-78
2022/12/11 07:58:13;;;;;;;92.22;20.85;;;;;;;;;;5153317;27;20050;-78
2022/12/11 08:00:39;;;;;;;80.82;19.63;;;;;;;;;;5150291;27;20054;-79
2022/12/11 08:03:05;;;;;;;96.65;19.90;;;;;;;;;;5153975;27;20038;-77
2022/12/11 08:05:31;;;;;;;84.22;20.35;;;;;;;;;;5154018;27;20099;-79
2022/12/11 08:07:57;;;;;;;79.68;21.00;;;;;;;;;;5154183;27;20042;-78
2022/12/11 08:10:23;;;;;;;67.97;18.75;;;;;;;;;;5154134;27;20051;-77
2022/12/11 08:12:49;;;;;;;75.85;19.73;;;;;;;;;;5153482;27;20094;-78
2022/12/11 08:15:15;;;;;;;79.93;19.95;;;;;;;;;;5154449;27;20047;-77
2022/12/11 08:17:41;;;;;;;85.05;22.70;;;0.90;99.90;;;;;;5145517;27;20055;-77
2022/12/11 08:20:07;;;;;;;88.97;20.50;;;;;;;;;;5152325;27;20367;-77
2022/12/11 08:22:33;;;;;;;;;;;;;;;;;;5154766;27;20739;-78
2022/12/11 08:25:01;;;;;;;73.78;20.13;;;;;;;;;;5154033;27;19923;-74
2022/12/11 08:27:27;;;;;;;85.20;19.98;;;1.30;99.90;;;;;;5153774;27;20047;-76
2022/12/11 08:29:53;;;;;;;77.87;20.07;;;;;;;;;;5133761;27;20057;-76
2022/12/11 08:32:19;;;;;;;81.43;21.08;;;;;;;;;;5117970;27;20791;-76
2022/12/11 08:34:45;;;;;;;75.93;21.00;;;1.10;99.90;;;;;;5153503;27;20051;-79
2022/12/11 08:37:12;;;;;;;78.95;20.70;;;;;;;;;;5135550;27;20050;-76
2022/12/11 08:39:38;;;;;;;79.00;20.23;;;;;;;;;;5135327;27;20502;-74
2022/12/11 08:42:04;;;;;;;74.68;20.23;;;;;;;;;;5135481;27;20099;-77
2022/12/11 08:44:30;;;;;;;78.95;20.55;;;;;;;;;;5153466;27;20050;-73
2022/12/11 08:46:56;;;;;;;76.43;19.08;;;;;;;;;;5153930;27;20081;-74
2022/12/11 08:49:22;;;;;;;75.22;19.35;;;;;;;;;;5134830;27;20046;-75
2022/12/11 08:51:48;;;;;;;78.43;20.25;;;;;;;;;;5135237;27;20046;-75
2022/12/11 08:54:14;;;;;;;71.72;19.08;;;;;;;;;;5153651;27;20047;-75
2022/12/11 08:56:40;;;;;;;64.93;17.63;;;;;;;;;;5118361;27;20043;-77
2022/12/11 08:59:06;;;;;;;81.25;20.02;;;;;;;;;;5153278;27;20042;-74
2022/12/11 09:01:32;;;;;;;72.05;19.08;;;;;;;;;;5153767;27;20054;-78
2022/12/11 09:03:58;;;;;;;77.15;18.65;;;;;;;;;;5134647;27;20505;-79
2022/12/11 09:06:27;;;;;;;77.07;19.58;;;1.40;99.90;;;;;;5153703;27;20051;-74
2022/12/11 09:08:54;;;;;;;78.30;19.45;;;;;;;;;;5153737;27;20073;-74
2022/12/11 09:11:25;;;;;;;76.10;20.17;;;;;;;;;;5153675;27;20053;-74
2022/12/11 09:13:51;;;;;;;62.08;18.20;;;1.50;99.90;;;;;;5153193;27;20394;-76
2022/12/11 09:16:19;;;;;;;77.53;19.23;;;1.40;99.90;;;;;;5153516;27;20042;-77
2022/12/11 09:18:50;;;;;;;68.97;18.55;;;1.40;99.90;;;;;;5153143;27;20050;-77
2022/12/11 09:21:18;;;;;;;73.68;17.98;;;1.10;99.90;;;;;;5135120;27;20054;-75
2022/12/11 09:23:45;;;;;;;71.68;17.67;;;;;;;;;;5147185;27;20053;-82
2022/12/11 09:26:12;;;;;;;;;;;1.50;99.90;;;;;;5132722;27;20131;-77
2022/12/11 09:28:38;;;;;;;76.75;19.13;;;;;;;;;;5140701;27;19919;-79
2022/12/11 09:31:15;;;;;;;72.22;20.77;;;;;;;;;;5131779;27;20046;-78
2022/12/11 09:33:41;;;;;;;84.72;20.63;;;1.40;99.90;;;;;;5150945;27;20497;-77
2022/12/11 09:36:07;;;;;;;91.13;20.05;;;1.40;99.90;;;;;;5151910;27;20042;-77
2022/12/11 09:38:33;;;;;;;85.05;20.25;;;;;;;;;;5152202;27;20050;-77
2022/12/11 09:40:59;;;;;;;;;;;1.40;99.90;;;;;;5155670;27;20130;-76
2022/12/11 09:43:41;;;;;;;81.60;20.40;;;;;;;;;;5157096;27;20006;-76
2022/12/11 09:46:15;;;;;;;85.60;20.73;;;;;;;;;;5157238;27;20043;-76
2022/12/11 09:48:43;;;;;;;84.85;20.38;;;;;;;;;;5157063;27;20478;-77
2022/12/11 09:51:30;;;;;;;79.95;21.67;;;;;;;;;;5157311;27;20496;-76
2022/12/11 09:53:59;;;;;;;82.57;21.25;;;1.70;99.90;;;;;;5157062;27;20126;-77
2022/12/11 09:56:35;;;;;;;85.97;20.35;;;1.70;99.90;;;;;;5157011;27;20038;-76
2022/12/11 09:59:16;;;;;;;89.13;21.00;;;;;;;;;;5138531;27;20169;-77
2022/12/11 10:02:00;;;;;;;97.90;21.33;;;1.40;99.90;;;;;;5156934;27;20082;-76
2022/12/11 10:04:45;;;;;;;87.30;22.05;;;;;;;;;;5156416;27;20030;-76
2022/12/11 10:07:15;;;;;;;88.07;19.85;;;1.80;99.90;;;;;;5156485;27;20039;-76
2022/12/11 10:09:53;;;;;;;86.60;20.10;;;;;;;;;;5156834;27;20142;-75
2022/12/11 10:12:37;;;;;;;78.65;21.38;;;1.50;99.90;;;;;;5156478;27;20087;-76
2022/12/11 10:15:28;;;;;;;88.65;22.00;;;1.60;99.90;;;;;;5156846;27;20092;-77
2022/12/11 10:17:58;;;;;;;89.85;21.73;;;1.80;99.90;;;;;;5156938;27;20137;-76
2022/12/11 10:20:27;;;;;;;83.22;22.50;;;;;;;;;;5138383;27;20041;-77
2022/12/11 10:22:54;;;;;;;83.15;22.73;;;;;;;;;;5156564;27;20043;-77
2022/12/11 10:25:31;;;;;;;74.05;19.73;;;;;;;;;;5156481;27;20046;-77
2022/12/11 10:27:56;;;;;;;;;;;1.80;99.90;;;;;;5156979;27;20046;-77
2022/12/11 10:30:29;;;;;;;86.93;21.52;;;;;;;;;;5156292;27;19923;-77
2022/12/11 10:33:10;;;;;;;79.75;20.83;;;1.60;99.90;;;;;;5156256;27;20043;-77
2022/12/11 10:35:44;;;;;;;86.80;22.35;;;1.70;99.90;;;;;;5138129;27;20098;-77
2022/12/11 10:38:17;;;;;;;76.18;20.15;;;;;;;;;;5137624;27;20046;-77
2022/12/11 10:40:50;;;;;;;86.15;19.45;;;;;;;;;;5155927;27;20059;-77
2022/12/11 10:43:16;;;;;;;78.78;19.05;;;1.70;99.90;;;;;;5156421;27;20459;-77
2022/12/11 10:45:53;;;;;;;80.55;21.27;;;;;;;;;;5155728;27;20078;-77
2022/12/11 10:48:19;;;;;;;77.70;20.42;;;1.70;99.90;;;;;;5155984;27;20074;-77
2022/12/11 10:50:54;;;;;;;85.03;20.67;;;;;;;;;;5137495;27;20081;-74
2022/12/11 10:53:21;;;;;;;76.78;20.02;;;1.90;99.90;;;;;;5156185;27;20080;-75
2022/12/11 10:55:47;;;;;;;78.53;19.23;;;1.90;99.90;;;;;;5156066;27;20043;-75
2022/12/11 10:58:24;;;;;;;77.72;20.52;;;;;;;;;;5156059;27;20038;-75
2022/12/11 11:00:59;;;;;;;67.95;19.73;;;2.00;99.90;;;;;;5155817;27;20491;-75
2022/12/11 11:03:26;;;;;;;77.20;21.10;;;1.70;99.90;;;;;;5137515;27;20149;-74
2022/12/11 11:06:13;;;;;;;79.25;21.02;;;1.90;99.90;;;;;;5156365;27;20446;-74
2022/12/11 11:08:43;;;;;;;77.38;20.58;;;2.00;99.90;;;;;;5155911;27;20042;-74
2022/12/11 11:11:31;;;;;;;68.90;20.80;;;2.20;99.90;;;;;;5133013;27;20034;-75
2022/12/11 11:14:13;;;;;;;70.30;20.50;;;;;;;;;;5154791;27;20050;-74
2022/12/11 11:16:40;;;;;;;74.15;20.42;;;;;;;;;;5155776;27;20141;-74
2022/12/11 11:19:07;;;;;;;74.57;20.08;;;;;;;;;;5155634;27;20134;-74
2022/12/11 11:21:34;;;;;;;85.22;20.10;;;;;;;;;;5155846;27;20043;-73
2022/12/11 11:24:00;;;;;;;81.05;21.08;;;;;;;;;;5155241;27;20483;-74
2022/12/11 11:26:26;;;;;;;86.45;20.65;;;;;;;;;;5155720;27;20483;-73
2022/12/11 11:28:54;;;;;;;77.53;20.70;;;;;;;;;;5155477;27;20439;-74
2022/12/11 11:31:28;;;;;;;78.57;19.50;;;1.80;99.90;;;;;;5137304;27;20369;-74
2022/12/11 11:33:54;;;;;;;79.38;20.67;;;;;;;;;;5155483;27;20183;-74
2022/12/11 11:36:27;;;;;;;81.63;20.50;;;1.80;99.90;;;;;;5155420;27;20050;-74
2022/12/11 11:38:57;;;;;;;68.10;20.30;;;2.20;99.90;;;;;;5155002;27;20054;-73
2022/12/11 11:41:42;;;;;;;68.90;20.75;;;2.20;99.90;;;;;;5155567;27;20100;-73
2022/12/11 11:44:11;;;;;;;78.82;19.80;;;1.90;99.90;;;;;;5152384;27;20050;-73
2022/12/11 11:47:15;;;;;;;67.05;20.55;;;2.00;99.90;;;;;;5155339;27;20050;-73
2022/12/11 11:50:02;;;;;;;70.07;20.20;;;2.20;99.90;;;;;;5030645;28;20053;-73
2022/12/11 11:52:39;;;;;;;82.00;20.83;;;2.20;99.90;;;;;;5128861;27;20535;-74
2022/12/11 11:55:18;;;;;;;58.90;18.92;;;2.10;99.90;;;;;;5134496;27;20039;-72
2022/12/11 11:57:56;;;;;;;69.53;20.52;;;;;;;;;;5134234;27;20039;-73
2022/12/11 12:00:24;;;;;;;70.35;19.73;;;;;;;;;;5134121;27;20100;-75
2022/12/11 12:03:00;;;;;;;71.63;19.58;;;2.20;99.90;;;;;;5133311;27;20039;-74
2022/12/11 12:05:58;;;;;;;71.32;20.83;;;2.50;99.90;;;;;;5134107;27;20043;-75
2022/12/11 12:08:57;;;;;;;65.38;19.63;;;2.30;99.90;;;;;;5089902;27;20059;-75
2022/12/11 12:11:29;;;;;;;65.43;19.88;;;;;;;;;;5134150;27;20130;-76
2022/12/11 12:13:55;;;;;;;65.63;19.13;;;;;;;;;;5133747;27;20039;-75
2022/12/11 12:16:29;;;;;;;64.18;19.45;;;;;;;;;;5134004;27;20065;-75
2022/12/11 12:19:06;;;;;;;69.57;20.92;;;;;;;;;;5134044;27;20506;-75
2022/12/11 12:21:41;;;;;;;72.30;20.73;;;2.40;99.90;;;;;;5132517;27;20103;-75
2022/12/11 12:24:13;;;;;;;77.00;22.30;;;;;;;;;;5133732;27;20082;-75
2022/12/11 12:26:47;;;;;;;66.40;20.35;;;;;;;;;;5132752;27;20387;-75
2022/12/11 12:29:28;;;;;;;69.13;21.05;;;;;;;;;;5115237;27;20046;-75
2022/12/11 12:32:00;;;;;;;65.53;20.30;;;;;;;;;;5133629;27;20398;-75
2022/12/11 12:34:46;;;;;;;64.47;18.42;;;2.40;99.90;;;;;;5133277;27;20628;-75
2022/12/11 12:37:50;;;;;;;61.17;20.13;;;2.50;99.90;;;;;;5133168;27;20082;-75
2022/12/11 12:40:22;;;;;;;66.35;20.90;;;;;;;;;;5029567;28;20505;-74
2022/12/11 12:43:03;;;;;;;63.38;19.92;;;2.50;99.90;;;;;;5029708;28;20088;-74
2022/12/11 12:46:02;;;;;;;59.25;19.45;;;2.40;99.90;;;;;;5092402;27;20059;-75
2022/12/11 12:48:29;;;;;;;59.67;19.98;;;2.70;99.90;;;;;;5133262;27;20047;-74
2022/12/11 12:50:55;;;;;;;65.18;20.20;;;;;;;;;;5133198;27;20039;-75
2022/12/11 12:53:24;;;;;;;62.83;19.70;;;;;;;;;;5133101;27;20046;-74
2022/12/11 12:55:51;;;;;;;57.92;19.20;;;2.60;99.90;;;;;;5133344;27;20047;-74
2022/12/11 12:58:28;;;;;;;57.78;18.85;;;;;;;;;;5133162;27;20046;-75
2022/12/11 13:00:54;;;;;;;66.78;19.48;;;;;;;;;;5115134;27;20112;-75
2022/12/11 13:03:25;;;;;;;59.33;18.73;;;;;;;;;;5132956;27;20529;-74
2022/12/11 13:05:57;;;;;;;54.90;18.88;;;2.10;99.90;;;;;;5114680;27;20410;-75
2022/12/11 13:08:48;;;;;;;54.17;18.38;;;2.20;99.90;;;;;;5132992;27;20036;-75
2022/12/11 13:11:15;;;;;;;59.15;19.27;;;;;;;;;;5102867;27;20059;-74
2022/12/11 13:13:43;;;;;;;51.63;18.65;;;;;;;;;;5132586;27;20069;-75
2022/12/11 13:16:14;;;;;;;59.13;18.92;;;2.30;99.90;;;;;;5133029;27;20045;-75
2022/12/11 13:18:41;;;;;;;52.03;17.65;;;;;;;;;;5132803;27;20091;-75
2022/12/11 13:21:33;;;;;;;56.83;18.60;;;2.10;99.90;;;;;;5132627;27;20053;-75
2022/12/11 13:24:19;;;;;;;54.13;19.52;;;2.40;99.90;;;;;;5132702;27;20092;-75
2022/12/11 13:26:45;;;;;;;54.60;18.30;;;2.00;99.90;;;;;;5113924;27;20055;-75
2022/12/11 13:29:40;;;;;;;54.97;19.08;;;2.40;99.90;;;;;;5132892;28;20126;-75
2022/12/11 13:32:08;;;;;;;55.78;19.60;;;2.30;99.90;;;;;;5132779;28;20082;-75
2022/12/11 13:34:38;;;;;;;59.53;19.67;;;2.50;99.90;;;;;;5132249;28;20047;-75
2022/12/11 13:37:06;;;;;;;58.40;18.52;;;2.10;99.90;;;;;;5132849;28;20407;-75
2022/12/11 13:39:36;;;;;;;59.30;20.40;;;2.50;99.90;;;;;;5132345;28;20047;-73
2022/12/11 13:42:05;;;;;;;60.00;19.85;;;;;;;;;;5132631;28;20107;-75
2022/12/11 13:44:37;;;;;;;58.90;19.30;;;2.30;99.90;;;;;;5132738;28;20078;-75
2022/12/11 13:47:04;;;;;;;56.88;19.33;;;;;;;;;;5114604;28;20078;-75
2022/12/11 13:49:36;;;;;;;61.17;19.60;;;2.30;99.90;;;;;;5132228;28;20047;-75
2022/12/11 13:52:03;;;;;;;55.80;19.23;;;2.30;99.90;;;;;;5132674;28;20054;-75
2022/12/11 13:54:30;;;;;;;53.88;18.38;;;;;;;;;;5132342;28;20039;-75
2022/12/11 13:56:57;;;;;;;55.13;18.00;;;;;;;;;;5132406;28;20047;-75
2022/12/11 13:59:29;;;;;;;59.67;19.63;;;2.20;99.90;;;;;;5132616;28;20071;-75
2022/12/11 14:01:58;;;;;;;58.30;18.02;;;2.10;99.90;;;;;;5114179;28;20113;-74
2022/12/11 14:04:27;;;;;;;55.78;18.05;;;2.30;99.90;;;;;;5132244;28;20039;-75
2022/12/11 14:06:53;;;;;;;55.70;18.88;;;;;;;;;;5132412;28;20142;-75
2022/12/11 14:09:22;;;;;;;60.95;19.02;;;;;;;;;;5132282;28;20043;-75